7W6

Hyde County Airport

Engelhard, North Carolina, USA
METAR K7W6 161800Z AUTO 23011G15KT 10SM CLR 10/01 A3016 RMK AO2 T00950005
Observed Flight Rules
Jan-16 @ 18:00 UTC (28 minutes ago) Visual Flight Rules
Wind Visibility Clouds
230° at 11 knots
 Gusting to 15 knots
10 miles
  • Clear skies
Temperatures Readings
Current 10°C / 50°F
Dewpoint 1°C / 34°F
Humidity 54%
Altimeter 30.16" Hg
Pressure 1021.32 hPa
Elevation 2
METAR K7W6 161800Z AUTO 23011G15KT 10SM CLR 10/01 A3016 RMK AO2 T00950005
Observed Flight Rules
Jan-16 @ 18:00 UTC
(28 minutes ago)
VFR
Wind Visibility
230° at 11 knots
 Gusting to 15 knots
10 miles
Clouds
  • Clear skies
Temperature Dewpoint
10°C / 50°F 1°C / 34°F
Humidity Altimeter Pressure
54% 30.16" Hg 1021.32 hPa